Nasdaq 100

Alles was Sie über den wissen sollten: Vom aktuellen Kurs und Chart bis zur Kursentwicklung der Nasdaq 100 Werte

Nasdaq 100 Realtime

ISIN: US6311011026
Symbol: NDX | Börse:

Kurszeit: 26.07.95 09:46 Uhr

18665.68

Punkte

Zeithorizont:
-150.91 Punkte
-0.8
Tageshoch
18680.05
Tagestief
18604.35

Nasdaq 100 Chart

  • 1 T
  • 1 W
  • 1 M
  • 6 M
  • YTD
  • 1 J
  • 5 J
  • Max
Loading ...
Loading ...

Nasdaq 100 Tops

Nasdaq 100 Flops

Eine vollständige Übersicht aller Gewinner und Verlierer des Tages, des aktuellen Jahres und weiterer Zeiträume finden Sie auf unserer Seite Nasdaq 100 Tops und Flops.

Andere Indizes

Nasdaq 100: Die Situation an der Börse aktuell

Börse Aktuell

Nasdaq 100: News & Analysen



Podcast zu Nasdaq 100



Zur Podcast-Übersicht

Nasdaq 100: Ratgeber und Tipps



Nasdaq 100 Kurs

Kurs 18.665,68
Änderung in Punkten -150.91
Änderung in % -0.8
Datum / Zeit 24.05.24 | 13:44
Börse 2,00
Öffnungskurs 18.618,86
Vortag 18.816,59
T-Hoch 18.680,05
T-Tief 18.604,35
Jahreshoch 18.922,26
Jahrestief 16.172,13
Währung Punkte
Loading ...

Aktueller Nasdaq 100 Marktbericht

Nasdaq 100 Werte: Aktuelle Kurse der Einzelwerte

Loading ...
Nasdaq 100 Aktie Vortag Kurs Hoch Tief +/- % Zeit Analysen
PayPal 62,19 61,58 62,69 61,22 -0,61 -0,98 % 22:00
T-Mobile US 165,50 164,97 165,60 164,21 -0,53 -0,32 % 22:00
AstraZeneca ADR 78,80 78,18 79,36 78,10 -0,62 -0,79 % 22:00
Mondelez 70,22 68,85 70,00 68,80 -1,37 -1,95 % 22:00
Workday 259,88 260,90 263,66 260,05 1,02 0,39 % 22:00
Ansys 326,36 328,18 335,18 325,30 1,82 0,56 % 22:00
Amazon 181,05 181,04 184,76 180,08 -2,09 -1,14 % 22:00
Xcel Energy 55,52 54,05 55,09 54,02 -1,47 -2,65 % 22:00
AMD 165,52 160,43 173,14 158,27 -5,09 -3,08 % 22:00
Amgen 309,41 306,50 311,99 304,38 -2,91 -0,94 % 22:00
Applied Materials 218,15 217,95 225,07 216,33 -0,20 -0,09 % 22:00
Align 261,12 252,39 262,19 249,73 -8,73 -3,34 % 22:00
Autodesk 219,96 215,16 221,20 214,52 -4,80 -2,18 % 22:00
Cintas Corp. 701,79 696,07 705,74 693,17 -5,72 -0,82 % 22:00
Activision Blizzard
Baker Hughes 32,09 31,81 32,36 31,78 -0,28 -0,87 % 22:00
Biogen 225,21 218,06 223,85 217,21 -7,15 -3,17 % 22:00
ASML Holding NV-NY 922,33 934,25 969,49 927,41 11,92 1,29 % 22:00
Costco Wholesale 801,86 796,34 808,05 795,43 -5,52 -0,69 % 22:00
Seagen
Cisco Systems 47,43 46,60 47,19 46,51 -0,83 -1,75 % 22:00
Datadog 122,75 122,12 125,44 122,01 -0,63 -0,51 % 22:00
Dollar Tree 113,77 114,60 114,70 112,62 0,83 0,73 % 22:00
CoStar Group 87,19 85,69 87,27 85,38 -1,50 -1,72 % 22:00
Electronic Arts 135,14 134,40 135,72 133,72 -0,74 -0,55 % 22:00
Paccar 108,33 108,87 109,25 107,67 0,54 0,50 % 22:00
eBay 52,80 52,81 52,89 52,31 0,01 0,02 % 22:00
Ross Stores 131,51 131,86 132,86 130,45 0,35 0,27 % 22:00
Meta Platforms 467,78 465,78 474,36 461,54 -2,00 -0,43 % 22:00
Walgreens Boots Alliance 16,47 15,95 16,40 15,89 -0,52 -3,16 % 22:00
Gilead 67,80 66,17 67,63 66,01 -1,63 -2,40 % 22:00
Microchip Technology Inc. 99,49 98,14 100,30 97,05 -1,35 -1,36 % 22:00
Keurig Dr Pepper 34,27 33,98 34,32 33,95 -0,29 -0,85 % 22:00
Honeywell International 202,80 199,39 201,55 199,22 -3,41 -1,68 % 22:00
Alphabet 178,00 175,06 179,91 174,54 -2,94 -1,65 % 22:00
Palo Alto Networks 308,58 311,44 314,44 304,50 2,86 0,93 % 22:00
Alphabet A 176,38 173,55 178,25 172,95 -2,83 -1,60 % 22:00
IDEXX Laboratories 517,94 516,10 524,82 511,78 -1,84 -0,36 % 22:00
Intel 31,42 30,08 31,57 29,87 -1,34 -4,26 % 22:00
Moderna 163,33 164,01 165,14 157,46 0,68 0,42 % 22:00
Intuit 670,27 662,26 676,62 659,50 -8,01 -1,20 % 22:00
DexCom 130,53 125,60 129,97 125,37 -4,93 -3,78 % 22:00
Intuitive Surgical 400,90 398,39 405,38 396,38 -2,51 -0,63 % 22:00
Enphase Energy 121,23 117,50 122,15 116,11 -3,73 -3,08 % 22:00
Lululemon Athletica 299,63 299,74 303,66 295,28 0,11 0,04 % 22:00
Lucid Group 2,89 2,72 2,89 2,70 -0,17 -5,88 % 22:00
Monster Beverage 53,10 52,64 53,16 52,62 -0,46 -0,87 % 22:00
Constellation Energy 220,11 221,16 228,05 220,74 1,05 0,48 % 22:00
Microsoft 430,52 427,00 433,60 425,42 -3,52 -0,82 % 22:00
Adobe 483,93 483,31 491,68 478,69 -0,62 -0,13 % 22:00
Micron Technology 126,28 126,27 131,95 124,66 -0,01 -0,01 % 22:00
O Reilly Automotive 991,44 975,87 994,70 973,42 -15,57 -1,57 % 22:00
Netflix 640,47 635,67 642,71 630,00 -4,80 -0,75 % 22:00
Paychex 126,98 125,66 126,70 125,50 -1,32 -1,04 % 22:00
NVIDIA 949,50 1.037,99 1.063,20 1.015,20 88,49 9,32 % 22:00
Regeneron Pharmaceuticals 983,80 980,57 991,71 975,73 -3,23 -0,33 % 22:00
NXP 278,83 272,72 279,88 269,68 -6,11 -2,19 % 22:00
Sirius XM 2,80 2,73 2,80 2,72 -0,07 -2,50 % 22:00
Booking Holdings 3.825,10 3.752,68 3.850,00 3.731,79 -72,42 -1,89 % 22:00
Verisk Analytic CL A 253,64 249,25 254,14 248,58 -4,39 -1,73 % 22:00
PepsiCo 182,09 179,27 181,89 179,04 -2,82 -1,55 % 22:00
Charter Communication – A 271,09 268,41 270,70 266,06 -2,68 -0,99 % 22:00
Qualcomm 202,93 201,76 207,95 199,42 -1,17 -0,58 % 22:00
KLA-Tencor Corp. 771,71 765,10 790,52 761,56 -6,61 -0,86 % 22:00
Starbucks 80,72 78,31 80,70 77,64 -2,41 -2,99 % 22:00
American Electric Power 91,48 89,28 91,13 89,21 -2,20 -2,40 % 22:00
Tesla 180,11 173,74 181,90 173,26 -6,37 -3,54 % 22:00
Exelon 37,90 37,03 37,80 36,99 -0,87 -2,30 % 22:00
Texas Instruments 202,54 197,29 202,95 196,84 -5,25 -2,59 % 22:00
Synopsys 573,13 586,30 605,45 568,46 13,17 2,30 % 22:00
Vertex Pharma 447,53 450,80 453,71 446,67 3,27 0,73 % 22:00
Diamondback Energy 192,34 191,96 195,17 191,76 -0,38 -0,20 % 22:00
Broadcom 1.392,24 1.393,29 1.429,00 1.378,00 1,05 0,08 % 22:00
Fortinet 61,57 60,93 62,08 60,65 -0,64 -1,04 % 22:00
Analog Devices 240,16 234,56 241,88 232,00 -5,60 -2,33 % 22:00
Cadence Design Systems 292,84 294,69 301,94 293,50 1,85 0,63 % 22:00
Automatic Data Processing 254,02 251,49 254,36 251,06 -2,53 -1,00 % 22:00
MercadoLibre 1.736,78 1.707,40 1.749,34 1.698,21 -29,38 -1,69 % 22:00
CSX 34,01 33,50 34,12 33,44 -0,51 -1,50 % 22:00
Crowdstrike Holdings 345,42 342,35 350,41 341,28 -3,07 -0,89 % 22:00
Cognizant Technology Solutions 69,05 68,47 69,66 68,26 -0,58 -0,84 % 22:00
Zoom Video Communications 64,38 62,42 64,68 62,19 -1,96 -3,04 % 22:00
Comcast 38,89 38,68 39,14 38,50 -0,21 -0,54 % 22:00
Pinduoduo 147,09 153,63 160,00 149,98 6,54 4,45 % 22:00
Warner Bros. Discovery 7,70 7,68 8,07 7,68 -0,38 -4,71 % 22:00
Copart 53,95 53,52 54,27 53,30 -0,43 -0,80 % 22:00
Fastenal 66,66 65,80 66,90 65,52 -0,86 -1,29 % 22:00
Marvell Technology 73,68 75,02 76,25 73,18 1,34 1,82 % 22:00
Fiserv 152,57 150,20 152,92 149,90 -2,37 -1,55 % 22:00
Airbnb 142,71 141,04 143,44 140,82 -1,67 -1,17 % 22:00
Illumina 107,39 105,85 107,37 104,66 -1,54 -1,43 % 22:00
Zscaler 174,16 171,91 176,00 170,83 -2,25 -1,29 % 22:00
JD.com ADR 32,68 31,20 32,33 31,15 -1,48 -4,53 % 22:00
Rivian 10,70 9,95 10,55 9,89 -0,75 -7,01 % 22:00
The Kraft Heinz 36,38 35,80 36,26 35,71 -0,58 -1,59 % 22:00
Atlassian 174,80 174,18 176,58 172,63 -0,62 -0,35 % 22:00
Lam Research 965,77 958,13 992,66 952,45 -7,64 -0,79 % 22:00
Old Dominion Freight Line 172,49 171,57 172,49 169,76 -0,92 -0,53 % 22:00
Marriott International 236,16 232,06 236,50 231,84 -4,10 -1,74 % 22:00
GLOBALFOUNDRIES 55,21 50,49 51,70 49,90 -4,72 -8,55 % 22:00
Apple 190,90 186,88 191,00 186,63 -4,02 -2,11 % 22:00

Der US-Index Nasdaq 100 umfasst die 100 größten US-Unternehmen, die im Börsensegment Nasdaq gelistet sind und nicht zur Finanzbranche gehören. Anders als an der Nasdaq insgesamt, die durch den Nasdaq Composite-Index abgebildet wird, finden sich in diesem Index also fast ausschließlich Technologieunternehmen. Fast, weil der Ausschluss von Unternehmen der Finanzbranche in diesem Index nicht ausschließt, das sich mancher „Ausreißer“ aus anderen Branchen in diesem Blue Chip-Index der Nasdaq wiederfindet, so z.B. die Fluglinie American Airlines oder der Nahrungsmittelkonzern Mondelez.

Das Besondere der Nasdaq ist, dass sie eine reine „Computerbörse“ ist, d.h. es gibt hier keinen Parketthandel wie an der New York Stock Exchange. Das garantiert einen schnelleren und oft auch zuverlässigeren Handel. Der Nasdaq 100 wird seit 1985 berechnet, die Nasdaq selbst wurde aber schon 1971 gegründet. Sie war damals die erste „Computer-Börse“, was sich auch in ihrem Namen wiederfindet: NASDAQ steht für National Association of Securities Dealers Automated Quotations. Noch bis in die Neunzigerjahre wurde diese Börse von vielen mit Misstrauen gesehen, weil man das Gefühl hatte, dass Computer, die die Kurse berechneten und den Handel abwickelten, leichter zu manipulieren seien als der Parketthandel der New York Stock Exchange. Diese Skepsis verschwand aber mit den Jahren, da die befürchteten Skandale ausblieben, die Systeme zuverlässig liefen und immer mehr große, beim Publikum beliebte Unternehmen an der Nasdaq notiert wurden.

Der Nasdaq 100 ist – genau wie der Dow Jones –  ein reiner Kursindex, das heißt, er berechnet sich ausschließlich aus den Kursveränderungen der in ihm enthaltenen Aktien. Anders als beim DAX heute werden Dividenden nicht in die Berechnung einbezogen. Einmal jährlich wird die Zusammensetzung des Nasdaq 100 vom Betreiber, der Nasdaq OMX Group, überprüft, die Gewichtung der einzelnen Aktien im Index erfährt viermal jährlich eine Überprüfung.